Soekarno-Hatta International Airport
WIII : now visible

Airfield :











YOU CAN JOIN US ON...

 
LOGIN :

Register | Disclaimer

   EN    FR    IT 

 









Legend :    VFR   Marginal VFR   IFR   Intensive IFR   Very Intensive IFR
Visi :
Ceiling :
>= 8 km
>= 3000ft
5 to 8 km
1000 to 3000 ft
1500m to 5 km
500 to 1000 ft
800 to 1500m
200 to 500 ft
< 800m
< 200 ft
Symbols :   Thunderstorms  Fog  Heavy snow  Heavy precipitations  Wind > 20 kt






- Airport Elevation : 34 ft
- IATA code : CGK


WIII - Soekarno-Hatta International

CURRENT METAR :
  • 121030Z 03006KT 340V050 9000 FEW020 30/23 Q1009 NOSIG

EXPIRED METARs :
  • 121000Z 03008KT 360V060 9000 FEW020 31/23 Q1008 NOSIG
  • 120930Z 03007KT 340V050 9000 FEW020 31/23 Q1008 NOSIG
  • 120900Z 02008KT 9999 FEW020 32/23 Q1008 NOSIG
  • 120830Z 36007KT 9999 FEW020 32/23 Q1007 NOSIG
  • 120800Z 01008KT 330V050 9999 FEW020 33/23 Q1008 NOSIG

TAF TAF WIII
Valid from the 12 at 06:00 until the 13 at 12:00 UTC


120500Z 1206/1312 35010KT 9999 FEW020
BECMG 1215/1217 VRB03KT 4000 HZ



MET'MAP, your aeronautical weather chart ! - Copyright ORBIFLY December 2007 - Disclaimer

ORBIFLY MET'MAP TEAM :

Programming & Development : Alexandra Zaïnal
Concept & Development : Baudouin d'Aumeries
Co-Development & Prog : Marc-Olivier Méhu
Technical & hardware support : Manuel Goepfert

Contact : metmap@orbifly.com




SOURCES & CREDITS :

   NOAA       Earth
Advisory